Old Picacho, New Mexico
Current Conditions -  °F | °C
As of 12:15 PM on Sunday 21 Dec 2014 (Local Time) from KLRU Reporting Station
Clear Clear  
Wind Chill: 55°   Ceiling: Unl
Heat Index: 55°   Visibility: 10mi
Dew Point: 28°   Wind: 14mph
Humidity: 36%   Direction: 260°W
Pressure: 30.03"   Gusts: 18mph
Location:  32.3074°N, 106.837°W
Report Text: KLRU 211915Z AUTO 26012G16KT 10SM CLR 13/M02 A3003 RMK AO2 T01261020
Loading
Personal Weather Stations






























Interactive Weather Map New forecast layout! Learn more

10-Day Weather Forecast

Advertisements
Track Severe Weather on mobile